createdAt,value
2019-01-06T00:00:17.519Z,23.93
2019-01-06T00:03:07.030Z,25.67
2019-01-06T00:06:06.874Z,29.97
2019-01-06T00:08:56.279Z,25.23
2019-01-06T00:11:45.805Z,27.47
2019-01-06T00:14:36.593Z,32.60
2019-01-06T00:17:36.508Z,27.27
2019-01-06T00:20:29.141Z,26.23
2019-01-06T00:23:19.867Z,46.53
2019-01-06T00:26:09.325Z,38.30
2019-01-06T00:28:58.943Z,55.73
2019-01-06T00:31:58.971Z,68.33
2019-01-06T00:34:43.852Z,68.73
2019-01-06T00:37:40.806Z,103.20
2019-01-06T00:40:49.706Z,99.33
2019-01-06T00:43:42.405Z,82.13
2019-01-06T00:46:31.784Z,73.77
2019-01-06T00:49:29.054Z,85.07
2019-01-06T00:52:18.862Z,121.27
2019-01-06T00:55:22.980Z,116.37
2019-01-06T00:58:12.417Z,127.83
2019-01-06T01:01:06.503Z,112.70
2019-01-06T01:04:09.308Z,115.23
2019-01-06T01:07:18.474Z,101.83
2019-01-06T01:10:05.415Z,104.60
2019-01-06T01:12:56.355Z,110.50
2019-01-06T01:15:45.889Z,124.50
2019-01-06T01:18:54.958Z,111.47
2019-01-06T01:21:48.743Z,91.30
2019-01-06T01:24:37.470Z,89.43
2019-01-06T01:27:22.034Z,92.20
2019-01-06T01:30:15.949Z,79.60
2019-01-06T01:33:15.948Z,86.20
2019-01-06T01:36:09.455Z,71.10
2019-01-06T01:38:58.760Z,75.23
2019-01-06T01:41:49.154Z,68.63
2019-01-06T01:44:51.936Z,61.13
2019-01-06T01:47:45.638Z,52.83
2019-01-06T01:50:34.976Z,41.87
2019-01-06T01:53:41.029Z,51.07
2019-01-06T01:56:30.645Z,34.90
2019-01-06T01:59:20.224Z,40.93
2019-01-06T02:02:29.020Z,34.17
2019-01-06T02:05:14.101Z,27.03
2019-01-06T02:08:20.157Z,42.53
2019-01-06T02:11:13.704Z,17.67
2019-01-06T02:14:04.510Z,20.60
2019-01-06T02:17:04.308Z,17.50
2019-01-06T02:20:13.474Z,16.50
2019-01-06T02:23:03.153Z,24.93
2019-01-06T02:25:53.977Z,19.47
2019-01-06T02:28:53.805Z,22.17
2019-01-06T02:31:44.520Z,15.17
2019-01-06T02:34:34.149Z,16.73
2019-01-06T02:37:23.743Z,16.20
2019-01-06T02:40:13.253Z,17.03
2019-01-06T02:43:02.815Z,17.67
2019-01-06T02:46:11.601Z,17.80
2019-01-06T02:49:05.192Z,17.97
2019-01-06T02:52:08.264Z,18.57
2019-01-06T02:55:00.204Z,17.93
2019-01-06T02:57:49.767Z,18.33
2019-01-06T03:00:39.321Z,17.37
2019-01-06T03:03:26.677Z,18.10
2019-01-06T03:06:29.849Z,18.40
2019-01-06T03:09:19.141Z,17.50
2019-01-06T03:12:15.700Z,19.03
2019-01-06T03:15:04.975Z,19.90
2019-01-06T03:17:55.763Z,17.50
2019-01-06T03:20:47.979Z,17.60
2019-01-06T03:23:38.086Z,17.87
2019-01-06T03:26:31.665Z,18.70
2019-01-06T03:29:16.924Z,19.50
2019-01-06T03:32:13.881Z,17.20
2019-01-06T03:35:03.351Z,16.50
2019-01-06T03:37:52.968Z,16.83
2019-01-06T03:40:55.776Z,15.80
2019-01-06T03:43:49.611Z,16.63
2019-01-06T03:46:43.332Z,18.63
2019-01-06T03:49:43.239Z,17.63
2019-01-06T03:52:30.296Z,17.47
2019-01-06T03:55:21.126Z,20.03
2019-01-06T03:58:10.529Z,22.20
2019-01-06T04:01:07.398Z,21.43
2019-01-06T04:04:01.228Z,19.70
2019-01-06T04:07:07.416Z,19.43
2019-01-06T04:10:18.056Z,20.33
2019-01-06T04:13:26.963Z,18.03
2019-01-06T04:16:22.168Z,15.67
2019-01-06T04:19:27.989Z,14.90
2019-01-06T04:22:25.117Z,11.20
2019-01-06T04:25:34.588Z,11.47
2019-01-06T04:28:37.565Z,11.27
2019-01-06T04:31:34.682Z,15.17
2019-01-06T04:34:43.588Z,19.60
2019-01-06T04:37:46.365Z,18.67
2019-01-06T04:40:52.290Z,19.33
2019-01-06T04:43:43.021Z,16.73
2019-01-06T04:46:32.915Z,16.40
2019-01-06T04:49:22.437Z,21.07
2019-01-06T04:52:11.822Z,20.10
2019-01-06T04:55:05.376Z,18.63
2019-01-06T04:58:02.260Z,17.93
2019-01-06T05:00:51.513Z,18.50
2019-01-06T05:03:45.122Z,18.47
2019-01-06T05:06:34.472Z,17.97
2019-01-06T05:09:35.901Z,20.70
2019-01-06T05:12:25.714Z,18.53
2019-01-06T05:15:19.255Z,16.93
2019-01-06T05:18:10.101Z,19.43
2019-01-06T05:20:59.758Z,17.97
2019-01-06T05:23:50.510Z,19.27
2019-01-06T05:26:47.552Z,16.90
2019-01-06T05:29:48.882Z,17.27
2019-01-06T05:32:38.568Z,21.60
2019-01-06T05:35:29.031Z,23.90
2019-01-06T05:38:19.861Z,22.67
2019-01-06T05:41:19.864Z,25.30
2019-01-06T05:44:13.199Z,24.83
2019-01-06T05:47:15.269Z,29.30
2019-01-06T05:50:04.884Z,26.10
2019-01-06T05:52:54.359Z,29.33
2019-01-06T05:55:39.417Z,29.73
2019-01-06T05:58:42.140Z,24.70
2019-01-06T06:01:31.500Z,23.87
2019-01-06T06:04:21.060Z,22.20
2019-01-06T06:07:14.574Z,21.70
2019-01-06T06:10:06.019Z,22.73
2019-01-06T06:12:56.865Z,23.10
2019-01-06T06:15:50.415Z,23.43
2019-01-06T06:18:47.403Z,24.33
2019-01-06T06:21:56.825Z,22.67
2019-01-06T06:24:43.698Z,19.73
2019-01-06T06:27:30.088Z,21.03
2019-01-06T06:30:19.467Z,24.43
2019-01-06T06:33:13.261Z,23.20
2019-01-06T06:36:10.158Z,21.00
2019-01-06T06:38:59.516Z,20.63
2019-01-06T06:42:05.461Z,24.53
2019-01-06T06:44:59.881Z,12.40
2019-01-06T06:47:49.234Z,11.30
2019-01-06T06:50:39.996Z,11.60
2019-01-06T06:53:33.852Z,11.07
2019-01-06T06:56:39.833Z,9.73
2019-01-06T06:59:29.291Z,11.30
2019-01-06T07:03:04.277Z,11.57
2019-01-06T07:06:15.792Z,11.20
2019-01-06T07:09:05.135Z,11.53
2019-01-06T07:11:56.441Z,14.17
2019-01-06T07:14:40.059Z,14.63
2019-01-06T07:18:21.261Z,14.03
2019-01-06T07:21:10.855Z,13.80
2019-01-06T07:24:00.318Z,14.47
2019-01-06T07:26:49.742Z,14.90
2019-01-06T07:29:55.531Z,15.73
2019-01-06T07:32:45.227Z,14.90
2019-01-06T07:35:28.222Z,13.77
2019-01-06T07:38:37.114Z,16.20
2019-01-06T07:41:26.505Z,14.00
2019-01-06T07:44:12.435Z,14.90
2019-01-06T07:47:03.169Z,15.20
2019-01-06T07:50:00.209Z,14.47
2019-01-06T07:53:00.387Z,15.00
2019-01-06T07:55:43.820Z,14.13
2019-01-06T07:58:34.643Z,16.07
2019-01-06T08:01:33.103Z,15.27
2019-01-06T08:04:14.386Z,14.13
2019-01-06T08:07:11.142Z,15.63
2019-01-06T08:10:20.293Z,15.43
2019-01-06T08:13:02.522Z,14.03
2019-01-06T08:15:59.291Z,16.13
2019-01-06T08:18:48.622Z,15.43
2019-01-06T08:21:39.353Z,15.23
2019-01-06T08:24:36.477Z,16.13
2019-01-06T08:27:30.260Z,16.57
2019-01-06T08:30:19.918Z,16.87
2019-01-06T08:33:25.695Z,15.40
2019-01-06T08:36:16.128Z,16.20
2019-01-06T08:39:10.120Z,16.10
2019-01-06T08:42:00.917Z,15.37
2019-01-06T08:45:03.684Z,15.33
2019-01-06T08:47:54.438Z,18.13
2019-01-06T08:50:54.178Z,17.67
2019-01-06T08:53:53.952Z,16.10
2019-01-06T08:56:50.617Z,15.03
2019-01-06T08:59:41.354Z,16.70
2019-01-06T09:02:30.878Z,19.90
2019-01-06T09:05:20.457Z,16.60
2019-01-06T09:08:14.082Z,18.53
2019-01-06T09:11:10.835Z,17.67
2019-01-06T09:14:00.721Z,21.97
2019-01-06T09:17:00.686Z,19.40
2019-01-06T09:20:06.504Z,19.10
2019-01-06T09:23:09.430Z,17.07
2019-01-06T09:26:00.125Z,18.80
2019-01-06T09:29:00.111Z,17.53
2019-01-06T09:32:03.061Z,17.33
2019-01-06T09:34:52.756Z,17.50
2019-01-06T09:37:43.532Z,18.47
2019-01-06T09:40:52.654Z,19.43
2019-01-06T09:43:43.391Z,17.80
2019-01-06T09:46:32.855Z,19.63
2019-01-06T09:49:32.647Z,19.30
2019-01-06T09:52:29.173Z,20.67
2019-01-06T09:55:18.903Z,19.80
2019-01-06T09:58:15.698Z,19.50
2019-01-06T10:01:21.624Z,19.40
2019-01-06T10:04:10.728Z,17.17
2019-01-06T10:07:01.505Z,19.00
2019-01-06T10:09:51.112Z,18.87
2019-01-06T10:12:40.718Z,18.43
2019-01-06T10:15:34.627Z,20.83
2019-01-06T10:18:37.468Z,19.50
2019-01-06T10:21:33.704Z,20.67
2019-01-06T10:24:39.637Z,19.17
2019-01-06T10:27:20.660Z,20.43
2019-01-06T10:30:29.915Z,19.17
2019-01-06T10:33:19.259Z,18.53
2019-01-06T10:36:25.104Z,20.57
2019-01-06T10:39:18.411Z,18.43
2019-01-06T10:42:07.742Z,20.27
2019-01-06T10:45:16.600Z,17.70
2019-01-06T10:48:09.978Z,18.27
2019-01-06T10:50:59.628Z,20.40
2019-01-06T10:53:53.208Z,20.27
2019-01-06T10:56:52.940Z,19.93
2019-01-06T10:59:46.660Z,19.37
2019-01-06T11:02:40.355Z,20.13
2019-01-06T11:05:31.805Z,19.10
2019-01-06T11:08:21.129Z,19.70
2019-01-06T11:11:10.823Z,19.93
2019-01-06T11:14:02.070Z,20.30
2019-01-06T11:16:54.980Z,19.47
2019-01-06T11:20:03.881Z,18.90
2019-01-06T11:22:52.096Z,20.73
2019-01-06T11:25:41.706Z,20.67
2019-01-06T11:28:44.822Z,18.80
2019-01-06T11:31:38.343Z,21.23
2019-01-06T11:34:41.191Z,20.13
2019-01-06T11:37:32.025Z,19.27
2019-01-06T11:40:21.821Z,20.40
2019-01-06T11:43:22.875Z,20.47
2019-01-06T11:46:53.278Z,21.33
2019-01-06T11:50:02.783Z,20.47
2019-01-06T11:53:05.887Z,20.13
2019-01-06T11:56:15.416Z,21.93
2019-01-06T11:59:25.393Z,20.17
2019-01-06T12:02:55.276Z,21.33
2019-01-06T12:06:04.801Z,20.53
2019-01-06T12:12:57.839Z,19.77
2019-01-06T12:15:48.166Z,21.83
2019-01-06T12:22:15.406Z,20.67
2019-01-06T12:25:44.036Z,20.10
2019-01-06T12:28:57.099Z,21.17
2019-01-06T12:32:07.318Z,21.63
2019-01-06T12:35:17.929Z,21.10
2019-01-06T12:38:47.150Z,21.17
2019-01-06T12:41:56.937Z,21.63
2019-01-06T12:45:20.752Z,21.47
2019-01-06T12:48:18.512Z,21.27
2019-01-06T12:51:21.081Z,21.17
2019-01-06T12:54:50.995Z,23.87
2019-01-06T13:01:17.719Z,21.27
2019-01-06T13:04:28.315Z,21.70
2019-01-06T13:08:00.234Z,21.23
2019-01-06T13:11:10.590Z,21.17
2019-01-06T13:14:12.476Z,21.40
2019-01-06T13:17:43.145Z,21.33
2019-01-06T13:27:27.699Z,21.13
2019-01-06T13:30:37.082Z,22.37
2019-01-06T13:37:03.848Z,21.13
2019-01-06T13:40:13.993Z,22.67
2019-01-06T13:43:23.650Z,21.47
2019-01-06T13:46:33.657Z,23.17
2019-01-06T13:49:43.453Z,21.83
2019-01-06T13:52:52.949Z,20.90
2019-01-06T13:56:21.360Z,22.00
2019-01-06T13:59:30.895Z,20.83
2019-01-06T14:02:48.072Z,21.90
2019-01-06T14:09:34.390Z,20.83
2019-01-06T14:12:43.887Z,21.97
2019-01-06T14:15:44.027Z,21.10
2019-01-06T14:22:23.121Z,21.93
2019-01-06T14:25:32.901Z,21.40
2019-01-06T14:29:02.792Z,22.87
2019-01-06T14:32:12.715Z,22.13
2019-01-06T14:35:40.968Z,21.60
2019-01-06T14:38:50.439Z,22.03
2019-01-06T14:45:15.322Z,22.27
2019-01-06T14:48:24.942Z,20.73
2019-01-06T14:51:44.746Z,19.83
2019-01-06T14:54:41.644Z,21.00
2019-01-06T14:57:52.114Z,21.63
2019-01-06T15:01:01.542Z,20.50
2019-01-06T15:04:14.432Z,19.73
2019-01-06T15:07:45.520Z,20.13
2019-01-06T15:10:55.841Z,20.07
2019-01-06T15:13:57.578Z,20.70
2019-01-06T15:20:35.307Z,18.67
2019-01-06T15:23:41.142Z,19.47
2019-01-06T15:26:50.793Z,19.57
2019-01-06T15:30:00.626Z,17.93
2019-01-06T15:33:28.091Z,16.40
2019-01-06T15:36:22.054Z,17.57
2019-01-06T15:39:50.982Z,15.80
2019-01-06T15:46:17.232Z,14.87
2019-01-06T15:49:26.746Z,14.87
2019-01-06T15:52:36.255Z,13.87
2019-01-06T15:56:06.175Z,14.43
2019-01-06T15:59:34.456Z,14.53
2019-01-06T16:02:43.885Z,14.33
2019-01-06T16:05:53.387Z,24.30
2019-01-06T16:09:03.101Z,26.40
2019-01-06T16:12:12.439Z,29.93
2019-01-06T16:15:14.945Z,26.40
2019-01-06T16:18:24.700Z,28.87
2019-01-06T16:21:36.212Z,30.00
2019-01-06T16:24:45.674Z,31.53
2019-01-06T16:27:56.211Z,30.07
2019-01-06T16:31:25.564Z,34.20
2019-01-06T16:34:54.413Z,31.47
2019-01-06T16:38:26.636Z,33.70
2019-01-06T16:41:59.311Z,31.17
2019-01-06T16:45:10.428Z,33.13
2019-01-06T16:48:21.562Z,53.17
2019-01-06T16:51:33.631Z,37.60
2019-01-06T17:01:15.635Z,39.47
2019-01-06T17:04:25.385Z,38.53
2019-01-06T17:07:34.908Z,86.73
2019-01-06T17:10:44.997Z,67.30
2019-01-06T17:13:47.706Z,33.23
2019-01-06T17:17:30.340Z,36.27
2019-01-06T17:20:49.167Z,30.37
2019-01-06T17:24:19.543Z,25.93
2019-01-06T17:27:49.471Z,36.50
2019-01-06T17:30:59.116Z,23.40
2019-01-06T17:34:09.036Z,30.70
2019-01-06T17:37:19.160Z,28.40
2019-01-06T17:40:34.676Z,29.00
2019-01-06T17:44:02.936Z,28.03
2019-01-06T17:46:31.830Z,24.53
2019-01-06T18:04:29.651Z,31.43
2019-01-06T18:28:45.889Z,29.77
2019-01-06T18:52:55.946Z,38.40
2019-01-06T19:26:29.380Z,40.97
2019-01-06T20:24:17.992Z,114.17
2019-01-06T20:52:58.214Z,122.73
2019-01-06T21:45:10.243Z,102.60
2019-01-06T21:54:08.837Z,104.57
2019-01-06T22:28:26.237Z,66.63
2019-01-06T23:29:58.571Z,81.43
2019-01-06T23:41:53.616Z,77.10
2019-01-06T23:47:55.591Z,139.03
2019-01-06T23:50:45.514Z,62.87
2019-01-06T23:53:35.132Z,126.80
2019-01-06T23:56:24.505Z,70.43
2019-01-06T23:59:18.429Z,67.17
